Time,TemperatureF,DewpointF,PressureIn,WindDirection,WindDirectionDegrees,WindSpeedMPH,WindSpeedGustMPH,Humidity,HourlyPrecipIn,Conditions,Clouds,dailyrainin,SolarRadiationWatts/m^2,SoftwareType,DateUTC
2013-05-21 00:01:00,51.6,49.9,29.62,ENE,59,0.0,0.0,94,0.00,RA,,0.00,0.0,WeatherDisplay:10.37,2013-05-21 05:01:00,
2013-05-21 00:06:00,51.4,50.0,29.61,ENE,60,2.3,2.3,95,0.00,RA,,0.00,0.0,WeatherDisplay:10.37,2013-05-21 05:06:00,
2013-05-21 00:11:00,51.1,49.4,29.61,ENE,59,1.1,0.0,94,0.00,OVC,,0.00,0.0,WeatherDisplay:10.37,2013-05-21 05:11:00,
2013-05-21 00:16:00,51.0,49.6,29.62,ENE,59,1.1,0.0,95,0.00,OVC,,0.00,0.0,WeatherDisplay:10.37,2013-05-21 05:16:00,
2013-05-21 00:21:00,50.8,49.4,29.61,ENE,59,0.0,0.0,95,0.00,OVC,,0.00,0.0,WeatherDisplay:10.37,2013-05-21 05:21:00,
2013-05-21 00:26:00,50.8,49.4,29.61,ENE,59,0.0,0.0,95,0.00,OVC,,0.00,0.0,WeatherDisplay:10.37,2013-05-21 05:26:00,
2013-05-21 00:31:00,50.8,49.4,29.60,ENE,60,1.1,1.1,95,0.00,OVC,,0.00,0.0,WeatherDisplay:10.37,2013-05-21 05:31:00,
2013-05-21 00:36:00,50.7,49.3,29.60,East,89,1.1,1.4,95,0.00,OVC,,0.00,0.0,WeatherDisplay:10.37,2013-05-21 05:36:00,
2013-05-21 00:41:00,50.5,49.1,29.60,East,88,1.0,1.0,95,0.00,OVC,,0.00,0.0,WeatherDisplay:10.37,2013-05-21 05:41:00,
2013-05-21 00:46:00,50.5,49.1,29.61,East,89,1.1,0.0,95,0.00,OVC,,0.00,0.0,WeatherDisplay:10.37,2013-05-21 05:46:00,
2013-05-21 00:51:00,50.5,49.1,29.60,East,89,0.0,0.0,95,0.00,OVC,,0.00,0.0,WeatherDisplay:10.37,2013-05-21 05:51:00,
2013-05-21 00:56:00,50.4,49.0,29.61,ENE,69,2.3,0.0,95,0.00,OVC,,0.00,0.0,WeatherDisplay:10.37,2013-05-21 05:56:00,
2013-05-21 01:01:00,50.3,48.9,29.61,ENE,64,1.1,0.0,95,0.00,OVC,,0.00,0.0,WeatherDisplay:10.37,2013-05-21 06:01:00,
2013-05-21 01:06:00,50.2,48.8,29.60,NE,50,2.0,2.0,95,0.00,OVC,,0.00,0.0,WeatherDisplay:10.37,2013-05-21 06:06:00,
2013-05-21 01:11:00,50.1,48.7,29.60,NE,42,1.1,1.1,95,0.00,OVC,,0.00,0.0,WeatherDisplay:10.37,2013-05-21 06:11:00,
2013-05-21 01:16:00,50.0,48.6,29.59,NNE,22,0.0,0.0,95,0.00,OVC,,0.00,0.0,WeatherDisplay:10.37,2013-05-21 06:16:00,
2013-05-21 01:21:00,49.9,48.5,29.59,NNE,22,1.1,0.0,95,0.00,OVC,,0.00,0.0,WeatherDisplay:10.37,2013-05-21 06:21:00,
2013-05-21 01:26:00,49.6,47.9,29.58,NE,40,3.5,3.5,94,0.00,OVC,,0.00,0.0,WeatherDisplay:10.37,2013-05-21 06:26:00,
2013-05-21 01:31:00,49.4,47.7,29.58,NE,51,1.1,0.0,94,0.00,OVC,,0.00,0.0,WeatherDisplay:10.37,2013-05-21 06:31:00,
2013-05-21 01:36:00,49.2,47.5,29.58,ENE,77,1.1,1.1,94,0.00,OVC,,0.00,0.0,WeatherDisplay:10.37,2013-05-21 06:36:00,
2013-05-21 01:41:00,49.2,47.5,29.58,ENE,76,1.1,1.1,94,0.00,OVC,,0.00,0.0,WeatherDisplay:10.37,2013-05-21 06:41:00,
2013-05-21 01:46:00,49.1,47.7,29.58,ENE,76,0.0,0.0,95,0.00,OVC,,0.00,0.0,WeatherDisplay:10.37,2013-05-21 06:46:00,
2013-05-21 01:51:00,49.1,47.7,29.58,NE,50,1.1,1.1,95,0.00,OVC,,0.00,0.0,WeatherDisplay:10.37,2013-05-21 06:51:00,
2013-05-21 01:56:00,49.1,47.7,29.58,NE,50,0.0,0.0,95,0.00,OVC,,0.00,0.0,WeatherDisplay:10.37,2013-05-21 06:56:00,
2013-05-21 02:01:00,49.0,47.6,29.58,NE,51,1.1,1.1,95,0.00,OVC,,0.00,0.0,WeatherDisplay:10.37,2013-05-21 07:01:00,
2013-05-21 02:06:00,49.0,47.6,29.58,NE,39,2.3,2.3,95,0.00,OVC,,0.00,0.0,WeatherDisplay:10.37,2013-05-21 07:06:00,
2013-05-21 02:11:00,49.0,47.6,29.58,NE,39,0.0,0.0,95,0.00,OVC,,0.00,0.0,WeatherDisplay:10.37,2013-05-21 07:11:00,
2013-05-21 02:17:00,48.9,47.5,29.57,NE,39,0.0,0.0,95,0.00,OVC,,0.00,0.0,WeatherDisplay:10.37,2013-05-21 07:17:00,
2013-05-21 02:22:00,48.9,47.5,29.57,NE,43,0.0,0.0,95,0.00,OVC,,0.00,0.0,WeatherDisplay:10.37,2013-05-21 07:22:00,
2013-05-21 02:27:00,48.9,47.5,29.57,NE,43,0.0,0.0,95,0.00,OVC,,0.00,0.0,WeatherDisplay:10.37,2013-05-21 07:27:00,
2013-05-21 02:32:00,48.8,47.4,29.57,NE,43,1.1,0.0,95,0.00,OVC,,0.00,0.0,WeatherDisplay:10.37,2013-05-21 07:32:00,
2013-05-21 02:37:00,48.8,47.4,29.57,NE,47,1.1,1.1,95,0.00,OVC,,0.00,0.0,WeatherDisplay:10.37,2013-05-21 07:37:00,
2013-05-21 02:42:00,48.7,47.3,29.57,NE,47,1.1,1.1,95,0.00,OVC,,0.00,0.0,WeatherDisplay:10.37,2013-05-21 07:42:00,
2013-05-21 02:47:00,48.6,47.2,29.57,NE,44,1.1,1.1,95,0.00,OVC,,0.00,0.0,WeatherDisplay:10.37,2013-05-21 07:47:00,
2013-05-21 02:52:00,48.6,47.2,29.57,NE,44,0.0,0.0,95,0.00,OVC,,0.00,0.0,WeatherDisplay:10.37,2013-05-21 07:52:00,
2013-05-21 02:57:00,48.7,47.3,29.57,ENE,66,1.1,0.0,95,0.00,OVC,,0.00,0.0,WeatherDisplay:10.37,2013-05-21 07:57:00,
2013-05-21 03:02:00,48.6,47.2,29.57,ENE,77,0.0,0.0,95,0.00,OVC,,0.00,0.0,WeatherDisplay:10.37,2013-05-21 08:02:00,
2013-05-21 03:07:00,48.7,47.3,29.57,ENE,77,1.1,1.1,95,0.00,OVC,,0.00,0.0,WeatherDisplay:10.37,2013-05-21 08:07:00,
2013-05-21 03:12:00,48.7,47.3,29.58,ENE,77,1.1,1.1,95,0.00,OVC,,0.00,0.0,WeatherDisplay:10.37,2013-05-21 08:12:00,
2013-05-21 03:17:00,48.7,47.3,29.58,ENE,77,1.1,1.1,95,0.00,-RA,,0.00,0.0,WeatherDisplay:10.37,2013-05-21 08:17:00,
2013-05-21 03:22:00,48.7,47.3,29.58,ENE,77,0.0,0.0,95,0.01,-RA,,0.01,0.0,WeatherDisplay:10.37,2013-05-21 08:22:00,
2013-05-21 03:27:00,48.7,47.3,29.58,ENE,77,1.1,1.1,95,0.02,-RA,,0.02,0.0,WeatherDisplay:10.37,2013-05-21 08:27:00,
2013-05-21 03:32:00,48.7,47.3,29.59,ENE,77,0.0,0.0,95,0.03,-RA,,0.03,0.0,WeatherDisplay:10.37,2013-05-21 08:32:00,
2013-05-21 03:37:00,48.7,47.3,29.60,ENE,77,0.0,0.0,95,0.05,-RA,,0.05,0.0,WeatherDisplay:10.37,2013-05-21 08:37:00,
2013-05-21 03:42:00,48.9,47.8,29.60,East,90,1.1,1.1,96,0.07,-RA,,0.07,0.0,WeatherDisplay:10.37,2013-05-21 08:42:00,
2013-05-21 03:47:00,48.9,47.8,29.60,ENE,67,1.1,0.0,96,0.09,-RA,,0.09,0.0,WeatherDisplay:10.37,2013-05-21 08:47:00,
2013-05-21 03:52:00,48.9,47.8,29.60,ENE,67,1.1,1.1,96,0.11,-RA,,0.11,0.0,WeatherDisplay:10.37,2013-05-21 08:52:00,
2013-05-21 03:57:00,48.8,47.7,29.61,ENE,68,0.0,0.0,96,0.13,-RA,,0.13,0.0,WeatherDisplay:10.37,2013-05-21 08:57:00,
2013-05-21 04:02:00,48.8,47.7,29.61,South,174,2.3,2.3,96,0.16,RA,,0.16,0.0,WeatherDisplay:10.37,2013-05-21 09:02:00,
2013-05-21 04:07:00,48.8,47.7,29.60,North,360,3.5,3.5,96,0.19,RA,,0.19,0.0,WeatherDisplay:10.37,2013-05-21 09:07:00,
2013-05-21 04:12:00,48.9,47.8,29.60,NW,319,1.1,1.1,96,0.22,RA,,0.22,0.0,WeatherDisplay:10.37,2013-05-21 09:12:00,
2013-05-21 04:17:00,48.9,47.8,29.59,NNW,347,1.1,0.0,96,0.24,RA,,0.24,0.0,WeatherDisplay:10.37,2013-05-21 09:17:00,
2013-05-21 04:22:00,48.9,47.8,29.59,NNW,342,2.3,2.3,96,0.26,RA,,0.27,0.0,WeatherDisplay:10.37,2013-05-21 09:22:00,
2013-05-21 04:27:00,48.9,47.8,29.59,North,5,1.1,1.1,96,0.28,RA,,0.30,0.0,WeatherDisplay:10.37,2013-05-21 09:27:00,
2013-05-21 04:32:00,49.0,47.9,29.59,North,5,1.1,0.0,96,0.29,RA,,0.32,0.0,WeatherDisplay:10.37,2013-05-21 09:32:00,
2013-05-21 04:37:00,48.9,47.8,29.59,NNE,22,1.1,1.1,96,0.29,RA,,0.34,0.0,WeatherDisplay:10.37,2013-05-21 09:37:00,
2013-05-21 04:42:00,48.7,47.6,29.59,WSW,256,3.5,3.5,96,0.29,RA,,0.36,0.0,WeatherDisplay:10.37,2013-05-21 09:42:00,
2013-05-21 04:47:00,48.6,47.5,29.59,NNE,15,0.0,0.0,96,0.28,RA,,0.37,0.0,WeatherDisplay:10.37,2013-05-21 09:47:00,
2013-05-21 04:52:00,48.6,47.5,29.59,NNW,346,1.1,0.0,96,0.27,RA,,0.38,0.0,WeatherDisplay:10.37,2013-05-21 09:52:00,
2013-05-21 04:57:00,48.4,47.3,29.59,NNW,338,3.5,0.0,96,0.26,RA,,0.39,0.0,WeatherDisplay:10.37,2013-05-21 09:57:00,
2013-05-21 05:02:00,48.3,47.2,29.59,North,355,3.5,3.5,96,0.24, +RA,,0.41,0.0,WeatherDisplay:10.37,2013-05-21 10:02:00,
2013-05-21 05:07:00,48.2,47.1,29.58,WSW,254,2.0,2.0,96,0.23, +RA,,0.42,0.0,WeatherDisplay:10.37,2013-05-21 10:07:00,
2013-05-21 05:12:00,48.1,47.0,29.58,WNW,302,1.1,0.0,96,0.21, +RA,,0.43,0.0,WeatherDisplay:10.37,2013-05-21 10:12:00,
2013-05-21 05:17:00,48.0,46.9,29.59,NW,323,2.0,2.0,96,0.21,RA,,0.46,0.0,WeatherDisplay:10.37,2013-05-21 10:17:00,
2013-05-21 05:22:00,47.9,46.8,29.60,NE,49,2.3,2.3,96,0.20,RA,,0.47,0.0,WeatherDisplay:10.37,2013-05-21 10:22:00,
2013-05-21 05:27:00,47.9,46.8,29.60,West,276,2.0,2.0,96,0.18,RA,,0.48,0.0,WeatherDisplay:10.37,2013-05-21 10:27:00,
2013-05-21 05:32:00,47.9,46.8,29.59,WSW,250,2.3,2.3,96,0.18,RA,,0.50,0.0,WeatherDisplay:10.37,2013-05-21 10:32:00,
2013-05-21 05:37:00,47.8,46.7,29.59,SE,132,3.5,3.5,96,0.18,RA,,0.52,0.0,WeatherDisplay:10.37,2013-05-21 10:37:00,
2013-05-21 05:42:00,47.7,46.6,29.59,SE,132,0.0,0.0,96,0.17,RA,,0.53,0.0,WeatherDisplay:10.37,2013-05-21 10:42:00,
2013-05-21 05:47:00,47.7,46.9,29.59,SSW,197,1.1,1.1,97,0.17,RA,,0.55,0.0,WeatherDisplay:10.37,2013-05-21 10:47:00,
2013-05-21 05:52:00,47.7,46.9,29.59,South,190,1.1,1.1,97,0.18,RA,,0.56,0.0,WeatherDisplay:10.37,2013-05-21 10:52:00,
2013-05-21 05:57:00,47.6,46.8,29.59,WSW,243,3.5,3.5,97,0.18,RA,,0.57,0.0,WeatherDisplay:10.37,2013-05-21 10:57:00,
2013-05-21 06:02:00,47.4,46.3,29.59,NE,38,1.1,0.0,96,0.19,RA,,0.59,0.0,WeatherDisplay:10.37,2013-05-21 11:02:00,
2013-05-21 06:07:00,47.4,46.3,29.58,NE,42,1.1,0.0,96,0.18,RA,,0.60,0.0,WeatherDisplay:10.37,2013-05-21 11:07:00,
2013-05-21 06:12:00,47.4,46.3,29.58,NNE,26,1.1,1.1,96,0.18,RA,,0.61,0.0,WeatherDisplay:10.37,2013-05-21 11:12:00,
2013-05-21 06:17:00,47.3,46.2,29.58,NW,320,0.0,0.0,96,0.17,-RA,,0.62,0.0,WeatherDisplay:10.37,2013-05-21 11:17:00,
2013-05-21 06:22:00,47.1,46.0,29.58,NNE,19,1.1,0.0,96,0.15,-RA,,0.62,5.0,WeatherDisplay:10.37,2013-05-21 11:22:00,
2013-05-21 06:27:00,46.9,45.8,29.58,NE,56,3.5,3.5,96,0.15,-RA,,0.63,5.0,WeatherDisplay:10.37,2013-05-21 11:27:00,
2013-05-21 06:32:00,46.7,45.6,29.58,NNE,27,1.1,0.0,96,0.13,RA,,0.63,12.0,WeatherDisplay:10.37,2013-05-21 11:32:00,
2013-05-21 06:37:00,46.5,45.4,29.58,NE,36,0.0,0.0,96,0.12,RA,,0.64,18.0,WeatherDisplay:10.37,2013-05-21 11:37:00,
2013-05-21 06:42:00,46.2,45.1,29.58,ENE,65,3.5,3.5,96,0.12,RA,,0.65,21.0,WeatherDisplay:10.37,2013-05-21 11:42:00,
2013-05-21 06:47:00,46.0,44.9,29.58,ENE,61,0.0,0.0,96,0.11,RA,,0.65,23.0,WeatherDisplay:10.37,2013-05-21 11:47:00,
2013-05-21 06:52:00,45.9,44.8,29.58,NNE,32,0.0,0.0,96,0.09,OVC,,0.65,23.0,WeatherDisplay:10.37,2013-05-21 11:52:00,
2013-05-21 06:57:00,45.8,44.7,29.58,NW,312,1.1,1.1,96,0.08,OVC,,0.65,33.0,WeatherDisplay:10.37,2013-05-21 11:57:00,
2013-05-21 07:02:00,45.8,44.7,29.58,NW,304,0.0,0.2,96,0.06,OVC,,0.65,30.0,WeatherDisplay:10.37,2013-05-21 12:02:00,
2013-05-21 07:07:00,45.7,44.6,29.58,NW,306,0.0,0.0,96,0.05,OVC,,0.65,32.0,WeatherDisplay:10.37,2013-05-21 12:07:00,
2013-05-21 07:12:00,45.7,44.6,29.58,NW,306,0.0,0.0,96,0.04,OVC,,0.65,37.0,WeatherDisplay:10.37,2013-05-21 12:12:00,
2013-05-21 07:17:00,45.8,44.7,29.58,NNE,19,1.1,1.1,96,0.03,-RA,,0.65,39.0,WeatherDisplay:10.37,2013-05-21 12:17:00,
2013-05-21 07:22:00,45.6,44.5,29.59,North,360,2.3,2.3,96,0.03,-RA,,0.65,33.0,WeatherDisplay:10.37,2013-05-21 12:22:00,
2013-05-21 07:27:00,45.5,44.4,29.59,NW,307,1.1,1.1,96,0.02,-RA,,0.65,33.0,WeatherDisplay:10.37,2013-05-21 12:27:00,
2013-05-21 07:32:00,45.5,44.4,29.60,NW,307,0.0,0.0,96,0.02,-RA,,0.65,33.0,WeatherDisplay:10.37,2013-05-21 12:32:00,
2013-05-21 07:37:00,45.5,44.4,29.59,North,349,2.3,2.3,96,0.01,-RA,,0.65,44.0,WeatherDisplay:10.37,2013-05-21 12:37:00,
2013-05-21 07:42:00,45.5,44.4,29.60,NNE,28,1.1,1.1,96,0.00,-RA,,0.65,46.0,WeatherDisplay:10.37,2013-05-21 12:42:00,
2013-05-21 07:47:00,45.6,44.5,29.60,NNE,30,1.1,1.1,96,0.00,-RA,,0.65,56.0,WeatherDisplay:10.37,2013-05-21 12:47:00,
2013-05-21 07:53:00,45.6,44.8,29.60,NE,53,1.1,1.1,97,0.00,-RA,,0.65,54.0,WeatherDisplay:10.37,2013-05-21 12:53:00,
2013-05-21 07:58:00,45.6,44.5,29.61,SE,144,3.5,3.5,96,0.00,-RA,,0.65,107.0,WeatherDisplay:10.37,2013-05-21 12:58:00,
2013-05-21 08:03:00,45.8,45.0,29.61,WSW,240,2.3,0.0,97,0.00,OVC,,0.65,111.0,WeatherDisplay:10.37,2013-05-21 13:03:00,
2013-05-21 08:08:00,45.9,45.1,29.60,WSW,240,1.1,1.1,97,0.00,OVC,,0.65,134.0,WeatherDisplay:10.37,2013-05-21 13:08:00,
2013-05-21 08:13:00,46.2,45.4,29.60,WSW,240,1.1,0.0,97,0.00,OVC,,0.65,139.0,WeatherDisplay:10.37,2013-05-21 13:13:00,
2013-05-21 08:18:00,46.6,45.8,29.60,ESE,110,2.3,2.3,97,0.00,OVC,,0.65,135.0,WeatherDisplay:10.37,2013-05-21 13:18:00,
2013-05-21 08:23:00,47.0,46.2,29.60,East,84,3.5,3.5,97,0.00,OVC,,0.65,132.0,WeatherDisplay:10.37,2013-05-21 13:23:00,
2013-05-21 08:28:00,47.2,46.4,29.59,East,82,1.1,1.1,97,0.00,OVC,,0.65,128.0,WeatherDisplay:10.37,2013-05-21 13:28:00,
2013-05-21 08:33:00,47.2,46.4,29.60,ENE,59,2.3,2.3,97,0.00,OVC,,0.65,221.0,WeatherDisplay:10.37,2013-05-21 13:33:00,
2013-05-21 08:38:00,47.2,46.1,29.61,West,276,2.3,0.0,96,0.00,OVC,,0.65,179.0,WeatherDisplay:10.37,2013-05-21 13:38:00,
2013-05-21 08:43:00,47.4,46.3,29.61,West,276,1.1,0.0,96,0.00,OVC,,0.65,155.0,WeatherDisplay:10.37,2013-05-21 13:43:00,
2013-05-21 08:48:00,47.7,46.6,29.61,NW,315,1.1,0.0,96,0.00,OVC,,0.65,163.0,WeatherDisplay:10.37,2013-05-21 13:48:00,
2013-05-21 08:53:00,47.9,46.8,29.62,NW,315,0.0,0.0,96,0.00,OVC,,0.65,162.0,WeatherDisplay:10.37,2013-05-21 13:53:00,
2013-05-21 08:58:00,48.1,47.0,29.62,NW,315,0.0,0.0,96,0.00,OVC,,0.65,155.0,WeatherDisplay:10.37,2013-05-21 13:58:00,
2013-05-21 09:03:00,48.2,47.1,29.62,NW,315,0.0,0.0,96,0.00,OVC,,0.65,160.0,WeatherDisplay:10.37,2013-05-21 14:03:00,
2013-05-21 09:08:00,48.4,47.3,29.62,NNW,337,1.1,1.1,96,0.00,OVC,,0.65,181.0,WeatherDisplay:10.37,2013-05-21 14:08:00,
2013-05-21 09:13:00,48.6,47.5,29.62,NW,323,0.0,0.0,96,0.00,OVC,,0.65,141.0,WeatherDisplay:10.37,2013-05-21 14:13:00,
2013-05-21 09:18:00,48.7,47.3,29.62,NW,319,0.0,0.0,95,0.00,OVC,,0.65,181.0,WeatherDisplay:10.37,2013-05-21 14:18:00,
2013-05-21 09:23:00,49.0,47.9,29.62,NW,319,1.0,0.0,96,0.00,OVC,,0.65,174.0,WeatherDisplay:10.37,2013-05-21 14:23:00,
2013-05-21 09:28:00,49.1,48.0,29.62,North,9,3.0,3.0,96,0.00,OVC,,0.65,149.0,WeatherDisplay:10.37,2013-05-21 14:28:00,
2013-05-21 09:33:00,49.1,47.7,29.62,NNE,13,3.5,3.5,95,0.00,OVC,,0.65,125.0,WeatherDisplay:10.37,2013-05-21 14:33:00,
2013-05-21 09:38:00,49.1,47.7,29.62,NNE,13,0.0,0.0,95,0.00,OVC,,0.65,142.0,WeatherDisplay:10.37,2013-05-21 14:38:00,
2013-05-21 09:43:00,49.2,47.8,29.62,NNE,16,3.5,3.5,95,0.00,OVC,,0.65,153.0,WeatherDisplay:10.37,2013-05-21 14:43:00,
2013-05-21 09:48:00,49.2,47.8,29.62,NNE,29,2.3,2.3,95,0.00,OVC,,0.65,148.0,WeatherDisplay:10.37,2013-05-21 14:48:00,
2013-05-21 09:53:00,49.2,47.5,29.62,NE,35,1.0,1.0,94,0.00,OVC,,0.65,162.0,WeatherDisplay:10.37,2013-05-21 14:53:00,
2013-05-21 09:58:00,49.1,47.4,29.62,North,5,1.1,1.1,94,0.00,OVC,,0.65,151.0,WeatherDisplay:10.37,2013-05-21 14:58:00,
2013-05-21 10:03:00,49.2,47.5,29.62,North,5,2.3,2.3,94,0.00,OVC,,0.65,176.0,WeatherDisplay:10.37,2013-05-21 15:03:00,
2013-05-21 10:08:00,49.2,47.5,29.62,NNW,346,1.1,1.1,94,0.00,OVC,,0.65,199.0,WeatherDisplay:10.37,2013-05-21 15:08:00,
2013-05-21 10:13:00,49.4,47.7,29.62,ENE,73,4.6,4.6,94,0.00,OVC,,0.65,185.0,WeatherDisplay:10.37,2013-05-21 15:13:00,
2013-05-21 10:18:00,49.4,47.5,29.62,East,83,3.5,3.5,93,0.00,OVC,,0.65,167.0,WeatherDisplay:10.37,2013-05-21 15:18:00,
2013-05-21 10:23:00,49.4,47.5,29.63,East,86,3.5,3.5,93,0.00,OVC,,0.65,158.0,WeatherDisplay:10.37,2013-05-21 15:23:00,
2013-05-21 10:28:00,49.4,47.5,29.63,East,82,3.5,3.5,93,0.00,OVC,,0.65,171.0,WeatherDisplay:10.37,2013-05-21 15:28:00,
2013-05-21 10:33:00,49.4,47.5,29.62,ENE,71,2.3,2.3,93,0.00,OVC,,0.65,174.0,WeatherDisplay:10.37,2013-05-21 15:33:00,
2013-05-21 10:38:00,49.6,47.7,29.63,ENE,61,1.1,1.1,93,0.00,OVC,,0.65,227.0,WeatherDisplay:10.37,2013-05-21 15:38:00,
2013-05-21 10:43:00,49.8,47.9,29.63,East,89,4.6,4.6,93,0.00,OVC,,0.65,227.0,WeatherDisplay:10.37,2013-05-21 15:43:00,
2013-05-21 10:48:00,50.1,48.2,29.62,ENE,74,1.1,0.0,93,0.00,OVC,,0.65,499.0,WeatherDisplay:10.37,2013-05-21 15:48:00,
2013-05-21 10:53:00,50.9,49.5,29.62,NNE,18,1.1,1.1,95,0.00,OVC,,0.65,552.0,WeatherDisplay:10.37,2013-05-21 15:53:00,
2013-05-21 10:58:00,51.7,50.0,29.62,North,360,3.5,3.5,94,0.00,OVC,,0.65,338.0,WeatherDisplay:10.37,2013-05-21 15:58:00,
2013-05-21 11:03:00,51.9,49.4,29.62,North,360,1.1,0.0,91,0.00,OVC,,0.65,279.0,WeatherDisplay:10.37,2013-05-21 16:03:00,
2013-05-21 11:08:00,52.1,49.8,29.63,North,360,1.0,1.0,92,0.00,OVC,,0.65,199.0,WeatherDisplay:10.37,2013-05-21 16:08:00,
2013-05-21 11:13:00,52.1,49.3,29.63,NNW,338,0.0,0.0,90,0.00,OVC,,0.65,214.0,WeatherDisplay:10.37,2013-05-21 16:13:00,
2013-05-21 11:18:00,52.3,50.0,29.62,NNW,338,1.1,1.1,92,0.00,OVC,,0.65,264.0,WeatherDisplay:10.37,2013-05-21 16:18:00,
2013-05-21 11:23:00,52.8,50.5,29.62,NNW,338,2.3,2.3,92,0.00,OVC,,0.65,301.0,WeatherDisplay:10.37,2013-05-21 16:23:00,
2013-05-21 11:28:00,53.2,50.6,29.62,NNW,342,2.3,2.3,91,0.00,OVC,,0.65,345.0,WeatherDisplay:10.37,2013-05-21 16:28:00,
2013-05-21 11:33:00,53.6,51.0,29.63,West,269,2.3,2.3,91,0.00,OVC,,0.65,348.0,WeatherDisplay:10.37,2013-05-21 16:33:00,
2013-05-21 11:38:00,53.7,50.2,29.62,NNE,26,4.6,4.6,88,0.00,OVC,,0.65,439.0,WeatherDisplay:10.37,2013-05-21 16:38:00,
2013-05-21 11:43:00,54.1,51.5,29.62,NE,53,1.1,1.1,91,0.00,OVC,,0.65,410.0,WeatherDisplay:10.37,2013-05-21 16:43:00,
2013-05-21 11:48:00,54.4,50.9,29.63,NE,34,2.3,2.3,88,0.00,OVC,,0.65,410.0,WeatherDisplay:10.37,2013-05-21 16:48:00,
2013-05-21 11:53:00,54.6,50.5,29.62,NE,45,1.1,1.1,86,0.00,OVC,,0.65,483.0,WeatherDisplay:10.37,2013-05-21 16:53:00,
2013-05-21 11:58:00,55.0,51.5,29.62,WNW,290,5.8,5.8,88,0.00,OVC,,0.65,448.0,WeatherDisplay:10.37,2013-05-21 16:58:00,
2013-05-21 12:03:00,55.5,51.1,29.62,North,11,1.1,1.1,85,0.00,OVC,,0.65,552.0,WeatherDisplay:10.37,2013-05-21 17:03:00,
2013-05-21 12:08:00,55.7,51.3,29.62,NW,310,3.5,3.5,85,0.00,OVC,,0.65,367.0,WeatherDisplay:10.37,2013-05-21 17:08:00,
2013-05-21 12:13:00,55.8,51.4,29.62,NE,39,3.5,3.5,85,0.00,OVC,,0.65,385.0,WeatherDisplay:10.37,2013-05-21 17:13:00,
2013-05-21 12:18:00,56.0,52.2,29.62,NE,49,1.1,1.1,87,0.00,OVC,,0.65,359.0,WeatherDisplay:10.37,2013-05-21 17:18:00,
2013-05-21 12:23:00,56.2,51.7,29.62,NNE,26,3.0,3.0,85,0.00,OVC,,0.65,381.0,WeatherDisplay:10.37,2013-05-21 17:23:00,
2013-05-21 12:28:00,56.3,51.5,29.62,West,273,3.5,3.5,84,0.00,OVC,,0.65,181.0,WeatherDisplay:10.37,2013-05-21 17:28:00,
2013-05-21 12:33:00,56.0,51.2,29.62,West,273,2.3,2.3,84,0.00,OVC,,0.65,218.0,WeatherDisplay:10.37,2013-05-21 17:33:00,
2013-05-21 12:38:00,56.0,51.6,29.62,West,277,0.0,0.4,85,0.00,OVC,,0.65,290.0,WeatherDisplay:10.37,2013-05-21 17:38:00,
2013-05-21 12:44:00,56.5,52.7,29.61,West,269,1.1,1.1,87,0.00,OVC,,0.65,552.0,WeatherDisplay:10.37,2013-05-21 17:44:00,
2013-05-21 12:49:00,57.4,52.9,29.61,West,269,1.1,1.1,85,0.00,OVC,,0.65,629.0,WeatherDisplay:10.37,2013-05-21 17:49:00,
2013-05-21 12:54:00,58.1,53.3,29.61,WNW,301,3.5,3.5,84,0.00,OVC,,0.65,788.0,WeatherDisplay:10.37,2013-05-21 17:54:00,
2013-05-21 12:59:00,58.6,52.8,29.61,NNW,338,2.3,2.3,81,0.00,OVC,,0.65,603.0,WeatherDisplay:10.37,2013-05-21 17:59:00,
2013-05-21 13:04:00,58.8,52.6,29.61,NE,42,1.1,1.1,80,0.00,OVC,,0.65,550.0,WeatherDisplay:10.37,2013-05-21 18:04:00,
2013-05-21 13:09:00,59.2,52.7,29.61,NNE,30,2.3,2.3,79,0.00,OVC,,0.65,471.0,WeatherDisplay:10.37,2013-05-21 18:09:00,
2013-05-21 13:14:00,59.4,53.6,29.61,WSW,251,2.3,2.3,81,0.00,OVC,,0.65,394.0,WeatherDisplay:10.37,2013-05-21 18:14:00,
2013-05-21 13:19:00,59.6,53.8,29.61,WSW,241,3.5,3.5,81,0.00,OVC,,0.65,432.0,WeatherDisplay:10.37,2013-05-21 18:19:00,
2013-05-21 13:24:00,60.0,53.5,29.61,West,273,3.5,3.5,79,0.00,OVC,,0.65,383.0,WeatherDisplay:10.37,2013-05-21 18:24:00,
2013-05-21 13:29:00,60.2,53.7,29.61,West,273,1.1,1.1,79,0.00,OVC,,0.65,468.0,WeatherDisplay:10.37,2013-05-21 18:29:00,
2013-05-21 13:34:00,60.5,54.3,29.61,NNE,19,2.3,2.3,80,0.00,OVC,,0.65,489.0,WeatherDisplay:10.37,2013-05-21 18:34:00,
2013-05-21 13:39:00,60.8,53.2,29.61,North,9,2.3,2.3,76,0.00,OVC,,0.65,761.0,WeatherDisplay:10.37,2013-05-21 18:39:00,
2013-05-21 13:44:00,61.1,53.5,29.61,North,5,1.1,1.1,76,0.00,OVC,,0.65,775.0,WeatherDisplay:10.37,2013-05-21 18:44:00,
2013-05-21 13:49:00,61.3,53.3,29.61,NE,44,2.3,2.3,75,0.00,OVC,,0.65,459.0,WeatherDisplay:10.37,2013-05-21 18:49:00,
2013-05-21 13:54:00,61.5,54.2,29.61,NNE,32,2.3,2.3,77,0.00,OVC,,0.65,396.0,WeatherDisplay:10.37,2013-05-21 18:54:00,
2013-05-21 13:59:00,61.7,53.7,29.61,NE,34,3.5,3.5,75,0.00,OVC,,0.65,341.0,WeatherDisplay:10.37,2013-05-21 18:59:00,
2013-05-21 14:04:00,61.7,53.7,29.61,NNE,22,3.5,3.5,75,0.00,OVC,,0.65,255.0,WeatherDisplay:10.37,2013-05-21 19:04:00,
2013-05-21 14:09:00,61.6,53.2,29.61,NNE,15,2.3,2.3,74,0.00,OVC,,0.65,251.0,WeatherDisplay:10.37,2013-05-21 19:09:00,
2013-05-21 14:14:00,61.5,53.5,29.62,NNE,28,2.3,2.3,75,0.00,OVC,,0.65,225.0,WeatherDisplay:10.37,2013-05-21 19:14:00,
2013-05-21 14:19:00,61.3,52.9,29.62,NNE,17,1.1,1.1,74,0.00,OVC,,0.65,169.0,WeatherDisplay:10.37,2013-05-21 19:19:00,
2013-05-21 14:24:00,60.9,52.9,29.62,West,264,3.5,3.5,75,0.00,OVC,,0.65,141.0,WeatherDisplay:10.37,2013-05-21 19:24:00,
2013-05-21 14:29:00,60.6,52.3,29.62,WSW,244,2.3,2.3,74,0.00,OVC,,0.65,153.0,WeatherDisplay:10.37,2013-05-21 19:29:00,
2013-05-21 14:34:00,60.4,52.8,29.63,WSW,249,3.5,3.5,76,0.00,OVC,,0.65,185.0,WeatherDisplay:10.37,2013-05-21 19:34:00,
2013-05-21 14:39:00,60.0,52.4,29.63,West,279,1.1,1.1,76,0.00,OVC,,0.65,153.0,WeatherDisplay:10.37,2013-05-21 19:39:00,
2013-05-21 14:44:00,59.7,52.5,29.63,NW,314,5.8,5.8,77,0.00,OVC,,0.65,167.0,WeatherDisplay:10.37,2013-05-21 19:44:00,
2013-05-21 14:49:00,59.2,51.6,29.63,NNE,33,3.5,3.5,76,0.00,OVC,,0.65,204.0,WeatherDisplay:10.37,2013-05-21 19:49:00,
2013-05-21 14:54:00,58.9,51.3,29.64,West,274,2.3,2.3,76,0.00,OVC,,0.65,202.0,WeatherDisplay:10.37,2013-05-21 19:54:00,
2013-05-21 14:59:00,58.7,50.8,29.64,NNE,26,2.0,2.0,75,0.00,OVC,,0.65,227.0,WeatherDisplay:10.37,2013-05-21 19:59:00,
2013-05-21 15:04:00,58.5,50.6,29.64,North,11,3.0,3.0,75,0.00,OVC,,0.65,271.0,WeatherDisplay:10.37,2013-05-21 20:04:00,
2013-05-21 15:09:00,58.4,50.9,29.64,NNE,17,3.5,3.5,76,0.00,OVC,,0.65,359.0,WeatherDisplay:10.37,2013-05-21 20:09:00,
2013-05-21 15:14:00,58.2,50.3,29.64,ENE,70,3.5,3.5,75,0.00,OVC,,0.65,345.0,WeatherDisplay:10.37,2013-05-21 20:14:00,
2013-05-21 15:19:00,57.8,50.3,29.64,NE,42,3.5,3.5,76,0.00,OVC,,0.65,323.0,WeatherDisplay:10.37,2013-05-21 20:19:00,
2013-05-21 15:24:00,58.0,51.9,29.64,NNE,23,4.0,4.0,80,0.00,OVC,,0.65,575.0,WeatherDisplay:10.37,2013-05-21 20:24:00,
2013-05-21 15:29:00,58.5,50.2,29.64,ESE,105,4.6,4.6,74,0.00,OVC,,0.65,589.0,WeatherDisplay:10.37,2013-05-21 20:29:00,
2013-05-21 15:34:00,58.6,50.3,29.64,NNE,15,4.6,4.6,74,0.00,OVC,,0.65,851.0,WeatherDisplay:10.37,2013-05-21 20:34:00,
2013-05-21 15:39:00,58.8,50.5,29.64,NE,36,3.5,3.5,74,0.00,OVC,,0.65,809.0,WeatherDisplay:10.37,2013-05-21 20:39:00,
2013-05-21 15:44:00,59.0,50.7,29.64,NW,317,2.3,2.3,74,0.00,OVC,,0.65,494.0,WeatherDisplay:10.37,2013-05-21 20:44:00,
2013-05-21 15:49:00,59.6,51.3,29.64,NE,50,2.3,2.3,74,0.00,OVC,,0.65,728.0,WeatherDisplay:10.37,2013-05-21 20:49:00,
2013-05-21 15:54:00,59.6,50.2,29.64,ENE,78,2.3,2.3,71,0.00,OVC,,0.65,712.0,WeatherDisplay:10.37,2013-05-21 20:54:00,
2013-05-21 15:59:00,59.4,50.7,29.64,North,5,2.3,2.3,73,0.00,OVC,,0.65,705.0,WeatherDisplay:10.37,2013-05-21 20:59:00,
2013-05-21 16:04:00,59.1,50.5,29.64,NW,324,3.5,3.5,73,0.00,OVC,,0.65,274.0,WeatherDisplay:10.37,2013-05-21 21:04:00,
2013-05-21 16:09:00,59.3,51.0,29.64,WNW,282,1.1,1.1,74,0.00,OVC,,0.65,737.0,WeatherDisplay:10.37,2013-05-21 21:09:00,
2013-05-21 16:14:00,59.7,50.3,29.64,NNE,15,3.5,3.5,71,0.00,OVC,,0.65,729.0,WeatherDisplay:10.37,2013-05-21 21:14:00,
2013-05-21 16:19:00,60.0,50.2,29.64,North,5,4.6,4.6,70,0.00,OVC,,0.65,594.0,WeatherDisplay:10.37,2013-05-21 21:19:00,
2013-05-21 16:24:00,59.9,50.5,29.64,NW,312,1.0,1.0,71,0.00,OVC,,0.65,566.0,WeatherDisplay:10.37,2013-05-21 21:24:00,
2013-05-21 16:29:00,60.1,50.3,29.64,East,91,3.5,3.5,70,0.00,OVC,,0.65,367.0,WeatherDisplay:10.37,2013-05-21 21:29:00,
2013-05-21 16:34:00,59.5,50.1,29.64,ESE,118,2.0,2.0,71,0.00,OVC,,0.65,418.0,WeatherDisplay:10.37,2013-05-21 21:34:00,
2013-05-21 16:39:00,58.9,49.9,29.65,NNE,26,3.5,3.5,72,0.00,OVC,,0.65,244.0,WeatherDisplay:10.37,2013-05-21 21:39:00,
2013-05-21 16:44:00,58.4,49.8,29.65,NE,42,1.1,1.1,73,0.00,OVC,,0.65,264.0,WeatherDisplay:10.37,2013-05-21 21:44:00,
2013-05-21 16:49:00,58.2,50.3,29.65,NE,51,2.3,2.3,75,0.00,OVC,,0.65,188.0,WeatherDisplay:10.37,2013-05-21 21:49:00,
2013-05-21 16:54:00,57.8,49.9,29.65,ENE,72,2.3,2.3,75,0.00,OVC,,0.65,151.0,WeatherDisplay:10.37,2013-05-21 21:54:00,
2013-05-21 16:59:00,57.6,49.7,29.65,ESE,108,1.1,1.3,75,0.00,OVC,,0.65,192.0,WeatherDisplay:10.37,2013-05-21 21:59:00,
2013-05-21 17:04:00,57.6,50.1,29.66,ENE,66,2.0,2.0,76,0.00,OVC,,0.65,204.0,WeatherDisplay:10.37,2013-05-21 22:04:00,
2013-05-21 17:09:00,57.3,49.1,29.66,East,79,3.5,3.5,74,0.00,OVC,,0.65,178.0,WeatherDisplay:10.37,2013-05-21 22:09:00,
2013-05-21 17:14:00,57.1,50.0,29.66,ENE,78,1.0,1.0,77,0.00,OVC,,0.65,141.0,WeatherDisplay:10.37,2013-05-21 22:14:00,
2013-05-21 17:19:00,57.2,50.1,29.67,ENE,60,3.5,3.5,77,0.00,OVC,,0.65,90.0,WeatherDisplay:10.37,2013-05-21 22:19:00,
2013-05-21 17:24:00,57.1,48.9,29.67,NNE,12,3.5,3.5,74,0.00,OVC,,0.65,65.0,WeatherDisplay:10.37,2013-05-21 22:24:00,
2013-05-21 17:29:00,57.0,49.2,29.67,North,355,1.1,1.1,75,0.00,OVC,,0.65,51.0,WeatherDisplay:10.37,2013-05-21 22:29:00,
2013-05-21 17:34:00,56.6,49.1,29.67,NW,316,1.1,1.1,76,0.00,OVC,,0.65,46.0,WeatherDisplay:10.37,2013-05-21 22:34:00,
2013-05-21 17:40:00,56.2,48.7,29.68,WNW,303,3.5,0.0,76,0.00,OVC,,0.65,47.0,WeatherDisplay:10.37,2013-05-21 22:40:00,
2013-05-21 17:45:00,56.0,49.2,29.68,WNW,291,1.0,1.0,78,0.00,OVC,,0.65,46.0,WeatherDisplay:10.37,2013-05-21 22:45:00,
2013-05-21 17:50:00,55.8,49.0,29.68,SW,232,3.5,3.5,78,0.00,OVC,,0.65,44.0,WeatherDisplay:10.37,2013-05-21 22:50:00,
2013-05-21 17:55:00,55.7,48.6,29.67,NNE,17,3.5,3.5,77,0.00,OVC,,0.65,54.0,WeatherDisplay:10.37,2013-05-21 22:55:00,
2013-05-21 18:00:00,55.5,48.8,29.68,North,5,3.5,3.5,78,0.00,OVC,,0.65,51.0,WeatherDisplay:10.37,2013-05-21 23:00:00,
2013-05-21 18:05:00,55.2,48.5,29.68,NNE,30,2.3,2.3,78,0.00,OVC,,0.65,54.0,WeatherDisplay:10.37,2013-05-21 23:05:00,
2013-05-21 18:10:00,55.0,48.3,29.67,NNE,17,2.3,2.3,78,0.00,OVC,,0.65,62.0,WeatherDisplay:10.37,2013-05-21 23:10:00,
2013-05-21 18:15:00,54.8,48.7,29.67,NW,315,1.1,1.1,80,0.00,OVC,,0.65,65.0,WeatherDisplay:10.37,2013-05-21 23:15:00,
2013-05-21 18:20:00,54.6,48.2,29.67,ENE,59,2.3,2.3,79,0.00,OVC,,0.65,56.0,WeatherDisplay:10.37,2013-05-21 23:20:00,
2013-05-21 18:25:00,54.2,47.5,29.67,North,350,1.1,1.1,78,0.00,OVC,,0.65,51.0,WeatherDisplay:10.37,2013-05-21 23:25:00,
2013-05-21 18:30:00,53.9,47.5,29.67,NNE,30,3.5,3.5,79,0.00,OVC,,0.65,58.0,WeatherDisplay:10.37,2013-05-21 23:30:00,
2013-05-21 18:35:00,53.5,47.1,29.67,NNE,26,1.1,1.1,79,0.00,OVC,,0.65,72.0,WeatherDisplay:10.37,2013-05-21 23:35:00,
2013-05-21 18:40:00,53.3,47.0,29.67,West,278,3.5,3.5,79,0.00,OVC,,0.65,74.0,WeatherDisplay:10.37,2013-05-21 23:40:00,
2013-05-21 18:45:00,53.1,47.1,29.68,NE,42,2.3,2.3,80,0.00,OVC,,0.65,77.0,WeatherDisplay:10.37,2013-05-21 23:45:00,
2013-05-21 18:50:00,52.9,46.9,29.68,NE,46,2.3,2.3,80,0.00,OVC,,0.65,76.0,WeatherDisplay:10.37,2013-05-21 23:50:00,
2013-05-21 18:55:00,52.6,46.9,29.68,ENE,61,3.5,3.5,81,0.00,OVC,,0.65,58.0,WeatherDisplay:10.37,2013-05-21 23:55:00,
2013-05-21 19:00:00,52.3,46.6,29.68,NE,46,2.3,2.3,81,0.00,OVC,,0.65,40.0,WeatherDisplay:10.37,2013-05-22 00:00:00,
2013-05-21 19:05:00,52.0,46.3,29.69,NNE,20,2.3,2.3,81,0.00,OVC,,0.65,32.0,WeatherDisplay:10.37,2013-05-22 00:05:00,
2013-05-21 19:10:00,51.6,46.0,29.69,NE,37,3.5,3.5,81,0.00,OVC,,0.65,28.0,WeatherDisplay:10.37,2013-05-22 00:10:00,
2013-05-21 19:15:00,51.2,46.2,29.69,East,94,2.3,2.3,83,0.00,OVC,,0.65,37.0,WeatherDisplay:10.37,2013-05-22 00:15:00,
2013-05-21 19:20:00,51.0,46.0,29.69,NE,39,2.3,2.3,83,0.00,OVC,,0.65,33.0,WeatherDisplay:10.37,2013-05-22 00:20:00,
2013-05-21 19:25:00,50.6,45.3,29.69,North,11,1.1,1.1,82,0.00,OVC,,0.65,33.0,WeatherDisplay:10.37,2013-05-22 00:25:00,
2013-05-21 19:30:00,50.3,45.6,29.70,NNE,17,2.3,2.3,84,0.00,OVC,,0.65,33.0,WeatherDisplay:10.37,2013-05-22 00:30:00,
2013-05-21 19:35:00,50.0,45.7,29.70,NE,46,1.1,1.1,85,0.00,OVC,,0.65,28.0,WeatherDisplay:10.37,2013-05-22 00:35:00,
2013-05-21 19:40:00,49.7,45.1,29.70,ENE,78,3.5,3.5,84,0.00,OVC,,0.65,25.0,WeatherDisplay:10.37,2013-05-22 00:40:00,
2013-05-21 19:45:00,49.4,45.1,29.71,North,350,1.1,1.1,85,0.00,OVC,,0.65,18.0,WeatherDisplay:10.37,2013-05-22 00:45:00,
2013-05-21 19:50:00,49.3,45.0,29.71,NNE,20,1.1,0.0,85,0.00,OVC,,0.65,9.0,WeatherDisplay:10.37,2013-05-22 00:50:00,
2013-05-21 19:55:00,49.1,45.1,29.71,NNE,31,1.1,1.1,86,0.00,OVC,,0.65,0.0,WeatherDisplay:10.37,2013-05-22 00:55:00,
2013-05-21 20:00:00,49.0,45.3,29.70,NNE,31,1.1,1.1,87,0.00,OVC,,0.65,0.0,WeatherDisplay:10.37,2013-05-22 01:00:00,
2013-05-21 20:05:00,49.0,45.3,29.71,NNE,30,0.0,0.0,87,0.00,OVC,,0.65,0.0,WeatherDisplay:10.37,2013-05-22 01:05:00,
2013-05-21 20:10:00,48.9,44.9,29.71,ENE,78,2.3,2.3,86,0.00,OVC,,0.65,0.0,WeatherDisplay:10.37,2013-05-22 01:10:00,
2013-05-21 20:15:00,48.8,45.1,29.71,NE,52,2.0,2.0,87,0.00,OVC,,0.65,0.0,WeatherDisplay:10.37,2013-05-22 01:15:00,
2013-05-21 20:20:00,48.6,44.6,29.71,East,88,0.0,0.0,86,0.00,OVC,,0.65,0.0,WeatherDisplay:10.37,2013-05-22 01:20:00,
2013-05-21 20:25:00,48.3,44.6,29.72,ENE,78,2.3,2.3,87,0.00,OVC,,0.65,0.0,WeatherDisplay:10.37,2013-05-22 01:25:00,
2013-05-21 20:30:00,47.9,44.5,29.72,NE,55,3.5,3.5,88,0.00,OVC,,0.65,0.0,WeatherDisplay:10.37,2013-05-22 01:30:00,
2013-05-21 20:35:00,47.7,44.6,29.71,NE,55,1.1,1.1,89,0.00,OVC,,0.65,0.0,WeatherDisplay:10.37,2013-05-22 01:35:00,
2013-05-21 20:40:00,47.4,44.3,29.71,NE,53,2.3,2.3,89,0.00,OVC,,0.65,0.0,WeatherDisplay:10.37,2013-05-22 01:40:00,
2013-05-21 20:45:00,47.2,44.1,29.72,ENE,59,1.1,0.0,89,0.00,OVC,,0.65,0.0,WeatherDisplay:10.37,2013-05-22 01:45:00,
2013-05-21 20:50:00,46.9,44.1,29.72,ENE,58,0.0,0.0,90,0.00,OVC,,0.65,0.0,WeatherDisplay:10.37,2013-05-22 01:50:00,
2013-05-21 20:55:00,46.8,44.0,29.72,ENE,57,2.0,2.0,90,0.00,OVC,,0.65,0.0,WeatherDisplay:10.37,2013-05-22 01:55:00,
2013-05-21 21:00:00,46.7,43.9,29.73,ENE,57,0.0,0.0,90,0.00,OVC,,0.65,0.0,WeatherDisplay:10.37,2013-05-22 02:00:00,
2013-05-21 21:05:00,46.6,44.1,29.73,ENE,57,0.0,0.0,91,0.00,OVC,,0.65,0.0,WeatherDisplay:10.37,2013-05-22 02:05:00,
2013-05-21 21:10:00,46.6,44.1,29.73,ENE,57,0.0,0.0,91,0.00,OVC,,0.65,0.0,WeatherDisplay:10.37,2013-05-22 02:10:00,
2013-05-21 21:15:00,46.5,44.0,29.73,NE,53,3.5,3.5,91,0.00,OVC,,0.65,0.0,WeatherDisplay:10.37,2013-05-22 02:15:00,
2013-05-21 21:20:00,46.3,43.8,29.73,NE,53,0.0,0.0,91,0.00,OVC,,0.65,0.0,WeatherDisplay:10.37,2013-05-22 02:20:00,
2013-05-21 21:25:00,46.3,43.8,29.73,NE,54,2.3,2.3,91,0.00,OVC,,0.65,0.0,WeatherDisplay:10.37,2013-05-22 02:25:00,
2013-05-21 21:30:00,46.2,43.4,29.73,NE,46,1.0,1.0,90,0.00,OVC,,0.65,0.0,WeatherDisplay:10.37,2013-05-22 02:30:00,
2013-05-21 21:35:00,46.0,43.2,29.74,NE,40,1.1,1.1,90,0.00,OVC,,0.65,0.0,WeatherDisplay:10.37,2013-05-22 02:35:00,
2013-05-21 21:40:00,45.8,43.0,29.74,NNW,344,2.3,2.3,90,0.00,OVC,,0.65,0.0,WeatherDisplay:10.37,2013-05-22 02:40:00,
2013-05-21 21:45:00,45.5,42.7,29.74,NNW,344,1.1,0.0,90,0.00,OVC,,0.65,0.0,WeatherDisplay:10.37,2013-05-22 02:45:00,
2013-05-21 21:50:00,45.4,42.6,29.74,North,360,1.1,0.0,90,0.00,-RA,,0.65,0.0,WeatherDisplay:10.37,2013-05-22 02:50:00,
2013-05-21 21:55:00,45.3,42.5,29.74,NNW,338,0.0,0.0,90,0.00,-RA,,0.65,0.0,WeatherDisplay:10.37,2013-05-22 02:55:00,
2013-05-21 22:00:00,45.2,42.4,29.75,North,5,3.5,3.5,90,0.00,-RA,,0.65,0.0,WeatherDisplay:10.37,2013-05-22 03:00:00,
2013-05-21 22:05:00,45.0,42.5,29.75,NE,56,0.0,0.1,91,0.00,-RA,,0.65,0.0,WeatherDisplay:10.37,2013-05-22 03:05:00,
2013-05-21 22:10:00,45.0,42.5,29.75,ENE,59,0.0,0.0,91,0.00,-RA,,0.65,0.0,WeatherDisplay:10.37,2013-05-22 03:10:00,
2013-05-21 22:15:00,45.0,42.5,29.75,NNE,24,1.1,1.1,91,0.00,-RA,,0.65,0.0,WeatherDisplay:10.37,2013-05-22 03:15:00,
2013-05-21 22:20:00,44.8,42.3,29.75,NNE,28,1.1,1.1,91,0.00,-RA,,0.65,0.0,WeatherDisplay:10.37,2013-05-22 03:20:00,
2013-05-21 22:25:00,44.7,42.2,29.75,NNE,26,0.0,0.0,91,0.00,-RA,,0.65,0.0,WeatherDisplay:10.37,2013-05-22 03:25:00,
2013-05-21 22:30:00,44.6,42.1,29.75,NNE,13,0.0,0.1,91,0.00,-RA,,0.65,0.0,WeatherDisplay:10.37,2013-05-22 03:30:00,
2013-05-21 22:35:00,44.5,42.0,29.75,NE,50,1.1,1.1,91,0.00,-RA,,0.65,0.0,WeatherDisplay:10.37,2013-05-22 03:35:00,
2013-05-21 22:40:00,44.4,41.9,29.75,NNE,28,3.5,3.5,91,0.00,-RA,,0.65,0.0,WeatherDisplay:10.37,2013-05-22 03:40:00,
2013-05-21 22:45:00,44.3,41.8,29.75,NNE,13,1.1,1.1,91,0.00,-RA,,0.65,0.0,WeatherDisplay:10.37,2013-05-22 03:45:00,
2013-05-21 22:50:00,44.3,41.8,29.75,NNE,29,1.1,0.0,91,0.00,-RA,,0.65,0.0,WeatherDisplay:10.37,2013-05-22 03:50:00,
2013-05-21 22:55:00,44.3,41.8,29.75,North,355,1.1,1.1,91,0.00,-RA,,0.65,0.0,WeatherDisplay:10.37,2013-05-22 03:55:00,
2013-05-21 23:00:00,44.2,41.7,29.75,North,355,2.3,0.0,91,0.00,-RA,,0.65,0.0,WeatherDisplay:10.37,2013-05-22 04:00:00,
2013-05-21 23:01:00,44.2,41.7,29.75,North,355,2.3,0.0,91,0.00,-RA,,0.65,0.0,WeatherDisplay:10.37,2013-05-22 04:01:00,
2013-05-21 23:06:00,44.1,41.6,29.75,NE,36,2.3,2.3,91,0.00,OVC,,0.65,0.0,WeatherDisplay:10.37,2013-05-22 04:06:00,
2013-05-21 23:11:00,44.1,41.9,29.75,NE,36,0.0,0.0,92,0.00,OVC,,0.65,0.0,WeatherDisplay:10.37,2013-05-22 04:11:00,
2013-05-21 23:16:00,44.0,41.8,29.75,NE,36,0.0,0.0,92,0.00,OVC,,0.65,0.0,WeatherDisplay:10.37,2013-05-22 04:16:00,
2013-05-21 23:21:00,44.0,41.8,29.75,NE,36,1.1,1.1,92,0.00,OVC,,0.65,0.0,WeatherDisplay:10.37,2013-05-22 04:21:00,
2013-05-21 23:26:00,43.9,41.7,29.75,NE,40,0.0,0.0,92,0.00,OVC,,0.65,0.0,WeatherDisplay:10.37,2013-05-22 04:26:00,
2013-05-21 23:31:00,43.8,41.6,29.75,NE,40,0.0,0.0,92,0.00,OVC,,0.65,0.0,WeatherDisplay:10.37,2013-05-22 04:31:00,
2013-05-21 23:36:00,43.9,41.7,29.75,SSW,203,2.3,2.3,92,0.00,OVC,,0.65,0.0,WeatherDisplay:10.37,2013-05-22 04:36:00,
2013-05-21 23:41:00,43.9,41.7,29.75,SSW,203,0.0,0.0,92,0.00,OVC,,0.65,0.0,WeatherDisplay:10.37,2013-05-22 04:41:00,
2013-05-21 23:46:00,43.9,41.7,29.75,SSW,203,1.1,1.1,92,0.00,OVC,,0.65,0.0,WeatherDisplay:10.37,2013-05-22 04:46:00,
2013-05-21 23:51:00,43.8,41.6,29.75,NNW,327,2.3,2.3,92,0.00,OVC,,0.65,0.0,WeatherDisplay:10.37,2013-05-22 04:51:00,
2013-05-21 23:56:00,43.8,41.6,29.75,NNW,328,1.0,1.0,92,0.00,OVC,,0.65,0.0,WeatherDisplay:10.37,2013-05-22 04:56:00,